sensor_id;sensor_type;location;lat;lon;timestamp;temperature;humidity
51765;DHT22;37835;53.256;6.456;2023-03-24T00:00:43;11.20;99.90
51765;DHT22;37835;53.256;6.456;2023-03-24T00:03:09;11.20;99.90
51765;DHT22;37835;53.256;6.456;2023-03-24T00:05:35;11.30;99.90
51765;DHT22;37835;53.256;6.456;2023-03-24T00:08:01;11.30;99.90
51765;DHT22;37835;53.256;6.456;2023-03-24T00:10:28;11.30;99.90
51765;DHT22;37835;53.256;6.456;2023-03-24T00:12:55;11.20;99.90
51765;DHT22;37835;53.256;6.456;2023-03-24T00:15:23;11.30;99.90
51765;DHT22;37835;53.256;6.456;2023-03-24T00:17:49;11.20;99.90
51765;DHT22;37835;53.256;6.456;2023-03-24T00:20:15;11.20;99.90
51765;DHT22;37835;53.256;6.456;2023-03-24T00:22:44;11.30;99.90
51765;DHT22;37835;53.256;6.456;2023-03-24T00:25:14;11.30;99.90
51765;DHT22;37835;53.256;6.456;2023-03-24T00:27:40;11.30;99.90
51765;DHT22;37835;53.256;6.456;2023-03-24T00:30:08;11.20;99.90
51765;DHT22;37835;53.256;6.456;2023-03-24T00:32:34;11.20;99.90
51765;DHT22;37835;53.256;6.456;2023-03-24T00:35:07;11.20;99.90
51765;DHT22;37835;53.256;6.456;2023-03-24T00:37:37;11.20;99.90
51765;DHT22;37835;53.256;6.456;2023-03-24T00:40:09;11.20;99.90
51765;DHT22;37835;53.256;6.456;2023-03-24T00:42:39;11.30;99.90
51765;DHT22;37835;53.256;6.456;2023-03-24T00:45:07;11.30;99.90
51765;DHT22;37835;53.256;6.456;2023-03-24T00:47:33;11.30;99.90
51765;DHT22;37835;53.256;6.456;2023-03-24T00:50:07;11.20;99.90
51765;DHT22;37835;53.256;6.456;2023-03-24T00:52:33;11.20;99.90
51765;DHT22;37835;53.256;6.456;2023-03-24T00:55:01;11.20;99.90
51765;DHT22;37835;53.256;6.456;2023-03-24T00:57:28;11.20;99.90
51765;DHT22;37835;53.256;6.456;2023-03-24T00:59:55;11.20;99.90
51765;DHT22;37835;53.256;6.456;2023-03-24T01:02:25;11.20;99.90
51765;DHT22;37835;53.256;6.456;2023-03-24T01:04:56;11.20;99.90
51765;DHT22;37835;53.256;6.456;2023-03-24T01:07:23;11.20;99.90
51765;DHT22;37835;53.256;6.456;2023-03-24T01:09:49;11.20;99.90
51765;DHT22;37835;53.256;6.456;2023-03-24T01:12:30;11.20;99.90
51765;DHT22;37835;53.256;6.456;2023-03-24T01:14:57;11.30;99.90
51765;DHT22;37835;53.256;6.456;2023-03-24T01:17:23;11.20;99.90
51765;DHT22;37835;53.256;6.456;2023-03-24T01:19:52;11.20;99.90
51765;DHT22;37835;53.256;6.456;2023-03-24T01:22:18;11.20;99.90
51765;DHT22;37835;53.256;6.456;2023-03-24T01:24:48;11.20;99.90
51765;DHT22;37835;53.256;6.456;2023-03-24T01:27:14;11.20;99.90
51765;DHT22;37835;53.256;6.456;2023-03-24T01:29:40;11.20;99.90
51765;DHT22;37835;53.256;6.456;2023-03-24T01:32:06;11.20;99.90
51765;DHT22;37835;53.256;6.456;2023-03-24T01:34:33;11.20;99.90
51765;DHT22;37835;53.256;6.456;2023-03-24T01:36:59;11.20;99.90
51765;DHT22;37835;53.256;6.456;2023-03-24T01:39:25;11.20;99.90
51765;DHT22;37835;53.256;6.456;2023-03-24T01:41:51;11.20;99.90
51765;DHT22;37835;53.256;6.456;2023-03-24T01:44:24;11.20;99.90
51765;DHT22;37835;53.256;6.456;2023-03-24T01:46:50;11.20;99.90
51765;DHT22;37835;53.256;6.456;2023-03-24T01:49:16;11.20;99.90
51765;DHT22;37835;53.256;6.456;2023-03-24T01:51:46;11.30;99.90
51765;DHT22;37835;53.256;6.456;2023-03-24T01:54:17;11.20;99.90
51765;DHT22;37835;53.256;6.456;2023-03-24T01:56:49;11.20;99.90
51765;DHT22;37835;53.256;6.456;2023-03-24T01:59:20;11.30;99.90
51765;DHT22;37835;53.256;6.456;2023-03-24T02:01:47;11.30;99.90
51765;DHT22;37835;53.256;6.456;2023-03-24T02:04:13;11.30;99.90
51765;DHT22;37835;53.256;6.456;2023-03-24T02:06:41;11.30;99.90
51765;DHT22;37835;53.256;6.456;2023-03-24T02:09:09;11.30;99.90
51765;DHT22;37835;53.256;6.456;2023-03-24T02:11:37;11.30;99.90
51765;DHT22;37835;53.256;6.456;2023-03-24T02:14:04;11.30;99.90
51765;DHT22;37835;53.256;6.456;2023-03-24T02:17:06;11.30;99.90
51765;DHT22;37835;53.256;6.456;2023-03-24T02:28:06;11.30;99.90
51765;DHT22;37835;53.256;6.456;2023-03-24T02:39:35;11.30;99.90
51765;DHT22;37835;53.256;6.456;2023-03-24T02:45:09;11.30;99.90
51765;DHT22;37835;53.256;6.456;2023-03-24T02:50:20;11.30;99.90
51765;DHT22;37835;53.256;6.456;2023-03-24T02:53:25;11.30;99.90
51765;DHT22;37835;53.256;6.456;2023-03-24T02:55:56;11.40;99.90
51765;DHT22;37835;53.256;6.456;2023-03-24T02:58:49;11.40;99.90
51765;DHT22;37835;53.256;6.456;2023-03-24T03:01:40;11.40;99.90
51765;DHT22;37835;53.256;6.456;2023-03-24T03:04:14;11.40;99.90
51765;DHT22;37835;53.256;6.456;2023-03-24T03:06:43;11.40;99.90
51765;DHT22;37835;53.256;6.456;2023-03-24T03:09:13;11.40;99.90
51765;DHT22;37835;53.256;6.456;2023-03-24T03:11:44;11.50;99.90
51765;DHT22;37835;53.256;6.456;2023-03-24T03:14:16;11.50;99.90
51765;DHT22;37835;53.256;6.456;2023-03-24T03:16:53;11.50;99.90
51765;DHT22;37835;53.256;6.456;2023-03-24T03:19:41;11.50;99.90
51765;DHT22;37835;53.256;6.456;2023-03-24T03:22:14;11.50;99.90
51765;DHT22;37835;53.256;6.456;2023-03-24T03:24:43;11.50;99.90
51765;DHT22;37835;53.256;6.456;2023-03-24T03:27:15;11.50;99.90
51765;DHT22;37835;53.256;6.456;2023-03-24T03:29:53;11.50;99.90
51765;DHT22;37835;53.256;6.456;2023-03-24T03:32:24;11.50;99.90
51765;DHT22;37835;53.256;6.456;2023-03-24T03:35:08;11.50;99.90
51765;DHT22;37835;53.256;6.456;2023-03-24T03:37:52;11.40;99.90
51765;DHT22;37835;53.256;6.456;2023-03-24T03:40:26;12.30;99.90
51765;DHT22;37835;53.256;6.456;2023-03-24T03:42:56;11.30;99.90
51765;DHT22;37835;53.256;6.456;2023-03-24T03:45:21;11.20;99.90
51765;DHT22;37835;53.256;6.456;2023-03-24T03:47:47;11.20;99.90
51765;DHT22;37835;53.256;6.456;2023-03-24T03:50:13;11.10;99.90
51765;DHT22;37835;53.256;6.456;2023-03-24T03:52:39;11.10;99.90
51765;DHT22;37835;53.256;6.456;2023-03-24T03:55:06;11.10;99.90
51765;DHT22;37835;53.256;6.456;2023-03-24T03:57:34;11.00;99.90
51765;DHT22;37835;53.256;6.456;2023-03-24T04:00:01;10.90;99.90
51765;DHT22;37835;53.256;6.456;2023-03-24T04:02:55;10.90;99.90
51765;DHT22;37835;53.256;6.456;2023-03-24T04:05:28;10.90;99.90
51765;DHT22;37835;53.256;6.456;2023-03-24T04:08:27;10.80;99.90
51765;DHT22;37835;53.256;6.456;2023-03-24T04:14:17;10.70;99.90
51765;DHT22;37835;53.256;6.456;2023-03-24T04:20:05;10.50;99.90
51765;DHT22;37835;53.256;6.456;2023-03-24T04:25:50;10.40;99.90
51765;DHT22;37835;53.256;6.456;2023-03-24T04:28:22;10.30;99.90
51765;DHT22;37835;53.256;6.456;2023-03-24T04:31:28;10.20;99.90
51765;DHT22;37835;53.256;6.456;2023-03-24T04:33:58;10.20;99.90
51765;DHT22;37835;53.256;6.456;2023-03-24T04:36:38;10.10;99.90
51765;DHT22;37835;53.256;6.456;2023-03-24T04:39:16;10.00;99.90
51765;DHT22;37835;53.256;6.456;2023-03-24T04:41:44;10.00;99.90
51765;DHT22;37835;53.256;6.456;2023-03-24T04:44:12;9.90;99.90
51765;DHT22;37835;53.256;6.456;2023-03-24T04:46:42;9.80;99.90
51765;DHT22;37835;53.256;6.456;2023-03-24T04:49:07;9.80;99.90
51765;DHT22;37835;53.256;6.456;2023-03-24T04:51:33;9.70;99.90
51765;DHT22;37835;53.256;6.456;2023-03-24T04:53:59;9.70;99.90
51765;DHT22;37835;53.256;6.456;2023-03-24T04:56:43;9.60;99.90
51765;DHT22;37835;53.256;6.456;2023-03-24T04:59:12;9.60;99.90
51765;DHT22;37835;53.256;6.456;2023-03-24T05:01:38;9.60;99.90
51765;DHT22;37835;53.256;6.456;2023-03-24T05:04:04;9.50;99.90
51765;DHT22;37835;53.256;6.456;2023-03-24T05:06:31;9.50;99.90
51765;DHT22;37835;53.256;6.456;2023-03-24T05:08:58;9.40;99.90
51765;DHT22;37835;53.256;6.456;2023-03-24T05:11:24;9.40;99.90
51765;DHT22;37835;53.256;6.456;2023-03-24T05:13:50;9.40;99.90
51765;DHT22;37835;53.256;6.456;2023-03-24T05:16:16;9.30;99.90
51765;DHT22;37835;53.256;6.456;2023-03-24T05:18:41;9.30;99.90
51765;DHT22;37835;53.256;6.456;2023-03-24T05:21:08;9.30;99.90
51765;DHT22;37835;53.256;6.456;2023-03-24T05:23:33;9.20;99.90
51765;DHT22;37835;53.256;6.456;2023-03-24T05:25:59;9.80;99.90
51765;DHT22;37835;53.256;6.456;2023-03-24T05:28:25;9.20;99.90
51765;DHT22;37835;53.256;6.456;2023-03-24T05:30:51;9.20;99.90
51765;DHT22;37835;53.256;6.456;2023-03-24T05:33:16;9.20;99.90
51765;DHT22;37835;53.256;6.456;2023-03-24T05:35:42;9.20;99.90
51765;DHT22;37835;53.256;6.456;2023-03-24T05:38:07;9.20;99.90
51765;DHT22;37835;53.256;6.456;2023-03-24T05:40:33;9.20;99.90
51765;DHT22;37835;53.256;6.456;2023-03-24T05:43:00;9.20;99.90
51765;DHT22;37835;53.256;6.456;2023-03-24T05:45:26;9.20;99.90
51765;DHT22;37835;53.256;6.456;2023-03-24T05:47:51;9.30;99.90
51765;DHT22;37835;53.256;6.456;2023-03-24T05:50:17;9.30;99.90
51765;DHT22;37835;53.256;6.456;2023-03-24T05:52:42;9.30;99.90
51765;DHT22;37835;53.256;6.456;2023-03-24T05:55:08;9.30;99.90
51765;DHT22;37835;53.256;6.456;2023-03-24T05:57:35;9.30;99.90
51765;DHT22;37835;53.256;6.456;2023-03-24T06:00:02;10.50;99.90
51765;DHT22;37835;53.256;6.456;2023-03-24T06:02:32;9.30;99.90
51765;DHT22;37835;53.256;6.456;2023-03-24T06:04:58;9.40;99.90
51765;DHT22;37835;53.256;6.456;2023-03-24T06:07:26;9.40;99.90
51765;DHT22;37835;53.256;6.456;2023-03-24T06:09:56;9.40;99.90
51765;DHT22;37835;53.256;6.456;2023-03-24T06:12:22;9.30;99.90
51765;DHT22;37835;53.256;6.456;2023-03-24T06:14:48;9.30;99.90
51765;DHT22;37835;53.256;6.456;2023-03-24T06:17:14;9.40;99.90
51765;DHT22;37835;53.256;6.456;2023-03-24T06:19:41;9.30;99.90
51765;DHT22;37835;53.256;6.456;2023-03-24T06:22:16;9.30;99.90
51765;DHT22;37835;53.256;6.456;2023-03-24T06:24:42;9.30;99.90
51765;DHT22;37835;53.256;6.456;2023-03-24T06:27:09;9.30;99.90
51765;DHT22;37835;53.256;6.456;2023-03-24T06:29:35;9.30;99.90
51765;DHT22;37835;53.256;6.456;2023-03-24T06:32:01;9.50;99.90
51765;DHT22;37835;53.256;6.456;2023-03-24T06:34:27;9.30;99.90
51765;DHT22;37835;53.256;6.456;2023-03-24T06:36:54;9.30;99.90
51765;DHT22;37835;53.256;6.456;2023-03-24T06:39:20;9.30;99.90
51765;DHT22;37835;53.256;6.456;2023-03-24T06:41:46;9.30;99.90
51765;DHT22;37835;53.256;6.456;2023-03-24T06:44:11;9.30;99.90
51765;DHT22;37835;53.256;6.456;2023-03-24T06:46:37;9.30;99.90
51765;DHT22;37835;53.256;6.456;2023-03-24T06:49:03;9.30;99.90
51765;DHT22;37835;53.256;6.456;2023-03-24T06:51:29;9.30;99.90
51765;DHT22;37835;53.256;6.456;2023-03-24T06:53:54;9.40;99.90
51765;DHT22;37835;53.256;6.456;2023-03-24T06:56:20;9.30;99.90
51765;DHT22;37835;53.256;6.456;2023-03-24T06:58:46;9.40;99.90
51765;DHT22;37835;53.256;6.456;2023-03-24T07:01:12;9.40;99.90
51765;DHT22;37835;53.256;6.456;2023-03-24T07:03:39;9.40;99.90
51765;DHT22;37835;53.256;6.456;2023-03-24T07:06:07;9.40;99.90
51765;DHT22;37835;53.256;6.456;2023-03-24T07:08:32;9.40;99.90
51765;DHT22;37835;53.256;6.456;2023-03-24T07:10:58;9.40;99.90
51765;DHT22;37835;53.256;6.456;2023-03-24T07:13:24;9.50;99.90
51765;DHT22;37835;53.256;6.456;2023-03-24T07:15:50;9.50;99.90
51765;DHT22;37835;53.256;6.456;2023-03-24T07:18:16;9.50;99.90
51765;DHT22;37835;53.256;6.456;2023-03-24T07:20:44;9.50;99.90
51765;DHT22;37835;53.256;6.456;2023-03-24T07:23:10;9.50;99.90
51765;DHT22;37835;53.256;6.456;2023-03-24T07:25:35;9.50;99.90
51765;DHT22;37835;53.256;6.456;2023-03-24T07:28:01;9.50;99.90
51765;DHT22;37835;53.256;6.456;2023-03-24T07:30:26;9.50;99.90
51765;DHT22;37835;53.256;6.456;2023-03-24T07:32:55;9.60;99.90
51765;DHT22;37835;53.256;6.456;2023-03-24T07:35:20;9.60;99.90
51765;DHT22;37835;53.256;6.456;2023-03-24T07:37:47;9.60;99.90
51765;DHT22;37835;53.256;6.456;2023-03-24T07:40:13;9.60;99.90
51765;DHT22;37835;53.256;6.456;2023-03-24T07:42:41;9.60;99.90
51765;DHT22;37835;53.256;6.456;2023-03-24T07:45:08;9.70;99.90
51765;DHT22;37835;53.256;6.456;2023-03-24T07:47:35;9.70;99.90
51765;DHT22;37835;53.256;6.456;2023-03-24T07:50:01;9.70;99.90
51765;DHT22;37835;53.256;6.456;2023-03-24T07:52:29;9.70;99.90
51765;DHT22;37835;53.256;6.456;2023-03-24T07:54:55;9.80;99.90
51765;DHT22;37835;53.256;6.456;2023-03-24T07:57:21;8.50;99.90
51765;DHT22;37835;53.256;6.456;2023-03-24T07:59:47;9.80;99.90
51765;DHT22;37835;53.256;6.456;2023-03-24T08:02:17;9.80;99.90
51765;DHT22;37835;53.256;6.456;2023-03-24T08:04:43;9.80;99.90
51765;DHT22;37835;53.256;6.456;2023-03-24T08:07:09;9.90;99.90
51765;DHT22;37835;53.256;6.456;2023-03-24T08:09:37;9.90;99.90
51765;DHT22;37835;53.256;6.456;2023-03-24T08:12:03;9.90;99.90
51765;DHT22;37835;53.256;6.456;2023-03-24T08:14:29;10.00;99.90
51765;DHT22;37835;53.256;6.456;2023-03-24T08:16:54;10.00;99.90
51765;DHT22;37835;53.256;6.456;2023-03-24T08:19:20;10.00;99.90
51765;DHT22;37835;53.256;6.456;2023-03-24T08:21:46;10.00;99.90
51765;DHT22;37835;53.256;6.456;2023-03-24T08:24:11;10.10;99.90
51765;DHT22;37835;53.256;6.456;2023-03-24T08:26:37;10.10;99.90
51765;DHT22;37835;53.256;6.456;2023-03-24T08:29:03;10.10;99.90
51765;DHT22;37835;53.256;6.456;2023-03-24T08:31:33;10.20;99.90
51765;DHT22;37835;53.256;6.456;2023-03-24T08:33:59;10.20;99.90
51765;DHT22;37835;53.256;6.456;2023-03-24T08:36:26;10.20;99.90
51765;DHT22;37835;53.256;6.456;2023-03-24T08:38:53;10.50;99.90
51765;DHT22;37835;53.256;6.456;2023-03-24T08:41:20;10.10;99.90
51765;DHT22;37835;53.256;6.456;2023-03-24T08:43:47;10.20;99.90
51765;DHT22;37835;53.256;6.456;2023-03-24T08:46:12;10.20;99.90
51765;DHT22;37835;53.256;6.456;2023-03-24T08:48:39;10.20;99.90
51765;DHT22;37835;53.256;6.456;2023-03-24T08:51:13;10.30;99.90
51765;DHT22;37835;53.256;6.456;2023-03-24T08:53:40;10.30;99.90
51765;DHT22;37835;53.256;6.456;2023-03-24T08:56:06;10.30;99.90
51765;DHT22;37835;53.256;6.456;2023-03-24T08:58:32;10.40;99.90
51765;DHT22;37835;53.256;6.456;2023-03-24T09:00:58;10.40;99.90
51765;DHT22;37835;53.256;6.456;2023-03-24T09:03:24;10.40;99.90
51765;DHT22;37835;53.256;6.456;2023-03-24T09:05:54;10.40;99.90
51765;DHT22;37835;53.256;6.456;2023-03-24T09:08:21;10.50;99.90
51765;DHT22;37835;53.256;6.456;2023-03-24T09:10:47;10.50;99.90
51765;DHT22;37835;53.256;6.456;2023-03-24T09:13:14;10.50;99.90
51765;DHT22;37835;53.256;6.456;2023-03-24T09:15:45;10.60;99.90
51765;DHT22;37835;53.256;6.456;2023-03-24T09:18:12;10.60;99.90
51765;DHT22;37835;53.256;6.456;2023-03-24T09:20:37;10.70;99.90
51765;DHT22;37835;53.256;6.456;2023-03-24T09:23:03;11.90;99.90
51765;DHT22;37835;53.256;6.456;2023-03-24T09:25:28;10.70;99.90
51765;DHT22;37835;53.256;6.456;2023-03-24T09:27:54;10.80;99.90
51765;DHT22;37835;53.256;6.456;2023-03-24T09:30:21;10.80;99.90
51765;DHT22;37835;53.256;6.456;2023-03-24T09:32:46;10.80;99.90
51765;DHT22;37835;53.256;6.456;2023-03-24T09:35:12;10.10;99.90
51765;DHT22;37835;53.256;6.456;2023-03-24T09:37:39;10.80;99.90
51765;DHT22;37835;53.256;6.456;2023-03-24T09:40:05;10.80;99.90
51765;DHT22;37835;53.256;6.456;2023-03-24T09:42:36;10.80;99.90
51765;DHT22;37835;53.256;6.456;2023-03-24T09:45:14;10.90;99.90
51765;DHT22;37835;53.256;6.456;2023-03-24T09:47:49;10.90;99.90
51765;DHT22;37835;53.256;6.456;2023-03-24T09:50:35;10.90;99.90
51765;DHT22;37835;53.256;6.456;2023-03-24T09:53:08;10.90;99.90
51765;DHT22;37835;53.256;6.456;2023-03-24T09:55:40;10.90;99.90
51765;DHT22;37835;53.256;6.456;2023-03-24T09:58:10;11.00;99.90
51765;DHT22;37835;53.256;6.456;2023-03-24T10:00:37;11.00;99.90
51765;DHT22;37835;53.256;6.456;2023-03-24T10:05:44;11.20;99.90
51765;DHT22;37835;53.256;6.456;2023-03-24T10:08:17;11.70;99.90
51765;DHT22;37835;53.256;6.456;2023-03-24T10:16:06;11.60;99.90
51765;DHT22;37835;53.256;6.456;2023-03-24T10:18:35;11.70;99.90
51765;DHT22;37835;53.256;6.456;2023-03-24T10:23:50;12.00;99.90
51765;DHT22;37835;53.256;6.456;2023-03-24T10:27:38;12.00;99.90
51765;DHT22;37835;53.256;6.456;2023-03-24T10:29:33;12.10;99.90
51765;DHT22;37835;53.256;6.456;2023-03-24T10:32:15;12.10;99.90
51765;DHT22;37835;53.256;6.456;2023-03-24T10:34:45;12.10;99.90
51765;DHT22;37835;53.256;6.456;2023-03-24T10:37:14;12.10;99.90
51765;DHT22;37835;53.256;6.456;2023-03-24T10:39:41;12.00;99.90
51765;DHT22;37835;53.256;6.456;2023-03-24T10:42:18;12.00;99.90
51765;DHT22;37835;53.256;6.456;2023-03-24T10:44:47;12.00;99.90
51765;DHT22;37835;53.256;6.456;2023-03-24T10:47:17;11.90;99.90
51765;DHT22;37835;53.256;6.456;2023-03-24T10:50:01;11.90;99.90
51765;DHT22;37835;53.256;6.456;2023-03-24T10:52:41;11.90;99.90
51765;DHT22;37835;53.256;6.456;2023-03-24T10:55:12;12.00;99.90
51765;DHT22;37835;53.256;6.456;2023-03-24T10:58:03;12.10;99.90
51765;DHT22;37835;53.256;6.456;2023-03-24T11:00:29;12.20;99.90
51765;DHT22;37835;53.256;6.456;2023-03-24T11:02:59;12.40;99.90
51765;DHT22;37835;53.256;6.456;2023-03-24T11:05:31;12.60;99.90
51765;DHT22;37835;53.256;6.456;2023-03-24T11:10:42;12.90;99.90
51765;DHT22;37835;53.256;6.456;2023-03-24T11:13:17;13.00;99.90
51765;DHT22;37835;53.256;6.456;2023-03-24T11:15:54;13.10;99.90
51765;DHT22;37835;53.256;6.456;2023-03-24T11:18:23;13.10;99.90
51765;DHT22;37835;53.256;6.456;2023-03-24T11:20:54;13.10;99.90
51765;DHT22;37835;53.256;6.456;2023-03-24T11:23:28;13.20;99.90
51765;DHT22;37835;53.256;6.456;2023-03-24T11:28:44;13.30;99.90
51765;DHT22;37835;53.256;6.456;2023-03-24T11:31:11;13.30;99.90
51765;DHT22;37835;53.256;6.456;2023-03-24T11:34:07;13.30;99.90
51765;DHT22;37835;53.256;6.456;2023-03-24T11:36:39;13.30;99.90
51765;DHT22;37835;53.256;6.456;2023-03-24T11:39:12;13.30;99.90
51765;DHT22;37835;53.256;6.456;2023-03-24T11:41:42;13.30;99.90
51765;DHT22;37835;53.256;6.456;2023-03-24T11:44:24;13.30;99.90
51765;DHT22;37835;53.256;6.456;2023-03-24T11:46:54;13.40;99.90
51765;DHT22;37835;53.256;6.456;2023-03-24T11:49:25;13.40;99.90
51765;DHT22;37835;53.256;6.456;2023-03-24T11:51:53;13.80;99.90
51765;DHT22;37835;53.256;6.456;2023-03-24T11:54:23;13.50;99.90
51765;DHT22;37835;53.256;6.456;2023-03-24T11:56:55;13.50;99.90
51765;DHT22;37835;53.256;6.456;2023-03-24T11:59:37;13.50;99.90
51765;DHT22;37835;53.256;6.456;2023-03-24T12:02:23;13.40;99.90
51765;DHT22;37835;53.256;6.456;2023-03-24T12:05:36;13.30;99.90
51765;DHT22;37835;53.256;6.456;2023-03-24T12:13:18;13.10;99.90
51765;DHT22;37835;53.256;6.456;2023-03-24T12:30:18;13.60;99.90
51765;DHT22;37835;53.256;6.456;2023-03-24T12:33:01;13.70;99.90
51765;DHT22;37835;53.256;6.456;2023-03-24T12:36:01;13.90;99.90
51765;DHT22;37835;53.256;6.456;2023-03-24T12:38:58;13.90;99.90
51765;DHT22;37835;53.256;6.456;2023-03-24T13:01:12;14.60;99.90
51765;DHT22;37835;53.256;6.456;2023-03-24T13:03:54;14.60;99.90
51765;DHT22;37835;53.256;6.456;2023-03-24T13:12:16;14.50;99.90
51765;DHT22;37835;53.256;6.456;2023-03-24T13:17:17;14.30;99.90
51765;DHT22;37835;53.256;6.456;2023-03-24T13:19:44;14.30;99.90
51765;DHT22;37835;53.256;6.456;2023-03-24T13:22:15;14.20;99.90
51765;DHT22;37835;53.256;6.456;2023-03-24T13:24:43;14.30;99.90
51765;DHT22;37835;53.256;6.456;2023-03-24T13:27:18;14.20;99.90
51765;DHT22;37835;53.256;6.456;2023-03-24T13:33:11;14.10;99.90
51765;DHT22;37835;53.256;6.456;2023-03-24T13:36:04;14.00;99.90
51765;DHT22;37835;53.256;6.456;2023-03-24T13:38:36;13.90;99.90
51765;DHT22;37835;53.256;6.456;2023-03-24T13:41:04;13.90;99.90
51765;DHT22;37835;53.256;6.456;2023-03-24T13:43:33;13.90;99.90
51765;DHT22;37835;53.256;6.456;2023-03-24T13:46:03;14.00;99.90
51765;DHT22;37835;53.256;6.456;2023-03-24T13:48:44;14.10;99.90
51765;DHT22;37835;53.256;6.456;2023-03-24T13:54:02;14.10;99.90
51765;DHT22;37835;53.256;6.456;2023-03-24T13:56:44;14.10;99.90
51765;DHT22;37835;53.256;6.456;2023-03-24T14:02:15;14.20;99.90
51765;DHT22;37835;53.256;6.456;2023-03-24T14:10:35;14.20;99.90
51765;DHT22;37835;53.256;6.456;2023-03-24T14:15:54;14.10;99.90
51765;DHT22;37835;53.256;6.456;2023-03-24T14:25:55;13.90;99.90
51765;DHT22;37835;53.256;6.456;2023-03-24T14:28:43;13.80;99.90
51765;DHT22;37835;53.256;6.456;2023-03-24T14:41:48;13.80;99.90
51765;DHT22;37835;53.256;6.456;2023-03-24T14:47:31;13.80;99.90
51765;DHT22;37835;53.256;6.456;2023-03-24T14:50:00;13.80;99.90
51765;DHT22;37835;53.256;6.456;2023-03-24T14:52:38;13.80;99.90
51765;DHT22;37835;53.256;6.456;2023-03-24T14:55:08;13.90;99.90
51765;DHT22;37835;53.256;6.456;2023-03-24T14:57:40;13.90;99.90
51765;DHT22;37835;53.256;6.456;2023-03-24T15:02:55;13.90;99.90
51765;DHT22;37835;53.256;6.456;2023-03-24T15:15:57;13.90;99.90
51765;DHT22;37835;53.256;6.456;2023-03-24T15:18:23;13.80;99.90
51765;DHT22;37835;53.256;6.456;2023-03-24T15:20:52;13.70;99.90
51765;DHT22;37835;53.256;6.456;2023-03-24T15:23:23;13.70;99.90
51765;DHT22;37835;53.256;6.456;2023-03-24T15:25:49;13.60;99.90
51765;DHT22;37835;53.256;6.456;2023-03-24T15:28:25;13.60;99.90
51765;DHT22;37835;53.256;6.456;2023-03-24T15:30:51;13.50;99.90
51765;DHT22;37835;53.256;6.456;2023-03-24T15:33:17;13.50;99.90
51765;DHT22;37835;53.256;6.456;2023-03-24T15:35:45;13.40;99.90
51765;DHT22;37835;53.256;6.456;2023-03-24T15:38:26;13.40;99.90
51765;DHT22;37835;53.256;6.456;2023-03-24T15:41:02;13.40;99.90
51765;DHT22;37835;53.256;6.456;2023-03-24T15:43:28;13.40;99.90
51765;DHT22;37835;53.256;6.456;2023-03-24T15:45:56;13.40;99.90
51765;DHT22;37835;53.256;6.456;2023-03-24T15:48:30;13.40;99.90
51765;DHT22;37835;53.256;6.456;2023-03-24T15:51:03;13.40;99.90
51765;DHT22;37835;53.256;6.456;2023-03-24T15:56:15;13.20;99.90
51765;DHT22;37835;53.256;6.456;2023-03-24T15:58:51;13.10;99.90
51765;DHT22;37835;53.256;6.456;2023-03-24T16:01:23;13.00;99.90
51765;DHT22;37835;53.256;6.456;2023-03-24T16:03:52;13.00;99.90
51765;DHT22;37835;53.256;6.456;2023-03-24T16:06:49;13.00;99.90
51765;DHT22;37835;53.256;6.456;2023-03-24T16:09:16;13.00;99.90
51765;DHT22;37835;53.256;6.456;2023-03-24T16:11:46;13.00;99.90
51765;DHT22;37835;53.256;6.456;2023-03-24T16:14:26;13.00;99.90
51765;DHT22;37835;53.256;6.456;2023-03-24T16:17:00;13.00;99.90
51765;DHT22;37835;53.256;6.456;2023-03-24T16:19:27;13.00;99.90
51765;DHT22;37835;53.256;6.456;2023-03-24T16:21:53;12.90;99.90
51765;DHT22;37835;53.256;6.456;2023-03-24T16:24:19;12.90;99.90
51765;DHT22;37835;53.256;6.456;2023-03-24T16:26:45;12.90;99.90
51765;DHT22;37835;53.256;6.456;2023-03-24T16:29:19;12.90;99.90
51765;DHT22;37835;53.256;6.456;2023-03-24T16:31:48;12.90;99.90
51765;DHT22;37835;53.256;6.456;2023-03-24T16:34:19;12.80;99.90
51765;DHT22;37835;53.256;6.456;2023-03-24T16:36:51;12.80;99.90
51765;DHT22;37835;53.256;6.456;2023-03-24T16:39:25;12.70;99.90
51765;DHT22;37835;53.256;6.456;2023-03-24T16:41:51;12.90;99.90
51765;DHT22;37835;53.256;6.456;2023-03-24T16:44:17;12.50;99.90
51765;DHT22;37835;53.256;6.456;2023-03-24T16:46:43;12.30;99.90
51765;DHT22;37835;53.256;6.456;2023-03-24T16:49:12;12.30;99.90
51765;DHT22;37835;53.256;6.456;2023-03-24T16:51:38;12.20;99.90
51765;DHT22;37835;53.256;6.456;2023-03-24T16:54:04;12.10;99.90
51765;DHT22;37835;53.256;6.456;2023-03-24T16:56:30;11.70;99.90
51765;DHT22;37835;53.256;6.456;2023-03-24T16:58:56;11.90;99.90
51765;DHT22;37835;53.256;6.456;2023-03-24T17:01:39;11.90;99.90
51765;DHT22;37835;53.256;6.456;2023-03-24T17:04:15;11.80;99.90
51765;DHT22;37835;53.256;6.456;2023-03-24T17:06:43;11.70;99.90
51765;DHT22;37835;53.256;6.456;2023-03-24T17:09:10;11.60;99.90
51765;DHT22;37835;53.256;6.456;2023-03-24T17:11:59;11.60;99.90
51765;DHT22;37835;53.256;6.456;2023-03-24T17:14:26;11.50;99.90
51765;DHT22;37835;53.256;6.456;2023-03-24T17:16:52;11.50;99.90
51765;DHT22;37835;53.256;6.456;2023-03-24T17:19:19;11.40;99.90
51765;DHT22;37835;53.256;6.456;2023-03-24T17:21:59;11.40;99.90
51765;DHT22;37835;53.256;6.456;2023-03-24T17:24:26;11.40;99.90
51765;DHT22;37835;53.256;6.456;2023-03-24T17:26:52;11.40;99.90
51765;DHT22;37835;53.256;6.456;2023-03-24T17:29:18;11.40;99.90
51765;DHT22;37835;53.256;6.456;2023-03-24T17:31:43;11.30;99.90
51765;DHT22;37835;53.256;6.456;2023-03-24T17:34:11;11.30;99.90
51765;DHT22;37835;53.256;6.456;2023-03-24T17:36:37;11.20;99.90
51765;DHT22;37835;53.256;6.456;2023-03-24T17:39:03;11.10;99.90
51765;DHT22;37835;53.256;6.456;2023-03-24T17:41:29;11.00;99.90
51765;DHT22;37835;53.256;6.456;2023-03-24T17:43:55;11.00;99.90
51765;DHT22;37835;53.256;6.456;2023-03-24T17:46:21;10.90;99.90
51765;DHT22;37835;53.256;6.456;2023-03-24T17:48:46;10.90;99.90
51765;DHT22;37835;53.256;6.456;2023-03-24T17:51:12;10.80;99.90
51765;DHT22;37835;53.256;6.456;2023-03-24T17:53:38;10.80;99.90
51765;DHT22;37835;53.256;6.456;2023-03-24T17:56:04;10.70;99.90
51765;DHT22;37835;53.256;6.456;2023-03-24T17:58:33;10.70;99.90
51765;DHT22;37835;53.256;6.456;2023-03-24T18:01:00;10.60;99.90
51765;DHT22;37835;53.256;6.456;2023-03-24T18:03:26;10.60;99.90
51765;DHT22;37835;53.256;6.456;2023-03-24T18:05:54;10.60;99.90
51765;DHT22;37835;53.256;6.456;2023-03-24T18:08:20;10.50;99.90
51765;DHT22;37835;53.256;6.456;2023-03-24T18:10:45;10.50;99.90
51765;DHT22;37835;53.256;6.456;2023-03-24T18:13:11;10.40;99.90
51765;DHT22;37835;53.256;6.456;2023-03-24T18:15:40;10.40;99.90
51765;DHT22;37835;53.256;6.456;2023-03-24T18:18:07;10.40;99.90
51765;DHT22;37835;53.256;6.456;2023-03-24T18:20:32;10.30;99.90
51765;DHT22;37835;53.256;6.456;2023-03-24T18:22:58;10.30;99.90
51765;DHT22;37835;53.256;6.456;2023-03-24T18:25:23;10.30;99.90